createdAt,value
2023-05-15T00:01:38.381Z,17.30
2023-05-15T00:04:23.886Z,16.42
2023-05-15T00:07:09.768Z,17.30
2023-05-15T00:09:57.221Z,17.05
2023-05-15T00:12:42.811Z,15.73
2023-05-15T00:15:28.722Z,16.90
2023-05-15T00:18:14.673Z,16.90
2023-05-15T00:21:00.415Z,15.85
2023-05-15T00:23:47.511Z,16.33
2023-05-15T00:26:34.841Z,16.42
2023-05-15T00:29:20.326Z,16.83
2023-05-15T00:32:06.480Z,16.65
2023-05-15T00:34:52.040Z,16.73
2023-05-15T00:37:37.754Z,17.52
2023-05-15T00:40:26.010Z,17.27
2023-05-15T00:43:14.962Z,17.27
2023-05-15T00:46:02.408Z,17.65
2023-05-15T00:48:50.222Z,18.45
2023-05-15T00:51:36.923Z,17.30
2023-05-15T00:54:22.917Z,17.70
2023-05-15T00:57:10.169Z,18.75
2023-05-15T00:59:57.310Z,16.95
2023-05-15T01:02:43.980Z,17.17
2023-05-15T01:05:29.698Z,17.67
2023-05-15T01:08:21.662Z,17.45
2023-05-15T01:11:11.712Z,17.58
2023-05-15T01:13:57.834Z,17.83
2023-05-15T01:16:45.984Z,17.85
2023-05-15T01:19:31.792Z,18.35
2023-05-15T01:22:46.917Z,17.65
2023-05-15T01:25:54.088Z,17.77
2023-05-15T01:28:47.951Z,19.80
2023-05-15T01:31:37.197Z,21.25
2023-05-15T01:34:29.489Z,20.30
2023-05-15T01:37:21.999Z,20.00
2023-05-15T01:40:10.699Z,21.65
2023-05-15T01:43:01.380Z,21.55
2023-05-15T01:45:48.154Z,15.23
2023-05-15T01:48:36.495Z,19.95
2023-05-15T01:51:24.304Z,20.23
2023-05-15T01:54:11.626Z,20.60
2023-05-15T01:56:58.968Z,20.83
2023-05-15T01:59:45.326Z,21.63
2023-05-15T02:02:32.724Z,22.02
2023-05-15T02:05:19.325Z,19.02
2023-05-15T02:08:06.105Z,22.13
2023-05-15T02:10:53.139Z,21.35
2023-05-15T02:13:40.829Z,21.38
2023-05-15T02:16:26.640Z,21.88
2023-05-15T02:19:14.103Z,20.45
2023-05-15T02:22:00.265Z,19.75
2023-05-15T02:24:46.206Z,19.92
2023-05-15T02:27:38.647Z,20.38
2023-05-15T02:30:34.663Z,22.38
2023-05-15T02:33:25.789Z,22.83
2023-05-15T02:39:02.698Z,22.83
2023-05-15T02:41:49.199Z,24.27
2023-05-15T02:44:36.615Z,25.48
2023-05-15T02:47:23.974Z,25.70
2023-05-15T02:50:10.706Z,27.33
2023-05-15T02:53:03.549Z,28.77
2023-05-15T02:55:49.636Z,27.98
2023-05-15T02:58:35.567Z,28.40
2023-05-15T03:01:21.574Z,29.35
2023-05-15T03:04:07.221Z,27.83
2023-05-15T03:06:52.802Z,26.50
2023-05-15T03:09:39.984Z,27.58
2023-05-15T03:12:26.321Z,27.05
2023-05-15T03:15:11.866Z,26.65
2023-05-15T03:17:57.927Z,27.17
2023-05-15T03:20:43.599Z,25.48
2023-05-15T03:23:31.169Z,27.40
2023-05-15T03:26:18.347Z,28.10
2023-05-15T03:29:04.286Z,26.10
2023-05-15T03:31:50.144Z,26.00
2023-05-15T03:34:36.338Z,27.60
2023-05-15T03:37:21.849Z,27.65
2023-05-15T03:40:09.314Z,26.90
2023-05-15T03:42:58.329Z,27.75
2023-05-15T03:45:44.433Z,27.10
2023-05-15T03:48:30.049Z,26.85
2023-05-15T03:51:15.878Z,26.67
2023-05-15T03:54:15.904Z,26.55
2023-05-15T03:57:04.924Z,27.58
2023-05-15T03:59:50.556Z,26.27
2023-05-15T04:02:37.028Z,26.90
2023-05-15T04:05:22.800Z,28.45
2023-05-15T04:08:10.096Z,28.85
2023-05-15T04:10:57.268Z,27.77
2023-05-15T04:13:43.091Z,28.30
2023-05-15T04:16:28.977Z,27.95
2023-05-15T04:19:14.853Z,27.95
2023-05-15T04:22:00.461Z,28.67
2023-05-15T04:24:45.899Z,28.83
2023-05-15T04:27:32.917Z,27.70
2023-05-15T04:30:18.524Z,28.38
2023-05-15T04:33:03.997Z,29.00
2023-05-15T04:35:49.887Z,28.55
2023-05-15T04:38:35.615Z,29.85
2023-05-15T04:41:24.409Z,28.05
2023-05-15T04:44:11.767Z,29.67
2023-05-15T04:46:57.566Z,28.63
2023-05-15T04:49:43.581Z,29.00
2023-05-15T04:52:29.222Z,29.88
2023-05-15T04:55:14.790Z,26.60
2023-05-15T04:58:00.266Z,27.45
2023-05-15T05:00:47.658Z,25.35
2023-05-15T05:03:33.521Z,27.27
2023-05-15T05:06:19.457Z,27.13
2023-05-15T05:09:05.880Z,27.30
2023-05-15T05:11:51.532Z,26.23
2023-05-15T05:14:37.470Z,26.38
2023-05-15T05:17:24.325Z,26.88
2023-05-15T05:20:13.190Z,24.98
2023-05-15T05:22:59.235Z,24.60
2023-05-15T05:25:45.030Z,25.55
2023-05-15T05:28:30.611Z,23.65
2023-05-15T05:31:16.368Z,23.13
2023-05-15T05:34:03.746Z,24.73
2023-05-15T05:36:49.731Z,23.52
2023-05-15T05:39:40.377Z,22.73
2023-05-15T05:42:26.886Z,22.35
2023-05-15T05:45:12.858Z,23.05
2023-05-15T05:48:01.516Z,21.05
2023-05-15T05:50:48.729Z,21.88
2023-05-15T05:53:34.216Z,23.13
2023-05-15T05:56:20.054Z,23.08
2023-05-15T05:59:06.427Z,21.52
2023-05-15T06:01:52.375Z,22.52
2023-05-15T06:04:38.661Z,22.55
2023-05-15T06:07:25.832Z,21.75
2023-05-15T06:10:12.900Z,22.00
2023-05-15T06:12:58.546Z,21.55
2023-05-15T06:15:45.868Z,21.67
2023-05-15T06:18:31.686Z,20.83
2023-05-15T06:21:17.707Z,22.13
2023-05-15T06:24:04.797Z,21.52
2023-05-15T06:26:52.374Z,23.30
2023-05-15T06:29:38.177Z,24.52
2023-05-15T06:32:24.466Z,23.80
2023-05-15T06:35:10.708Z,24.92
2023-05-15T06:37:57.156Z,25.38
2023-05-15T06:40:45.690Z,24.25
2023-05-15T06:43:31.254Z,22.50
2023-05-15T06:46:19.162Z,22.42
2023-05-15T06:49:05.080Z,21.15
2023-05-15T06:51:51.220Z,20.60
2023-05-15T06:54:37.550Z,20.08
2023-05-15T06:57:24.398Z,21.08
2023-05-15T07:00:11.543Z,19.55
2023-05-15T07:02:57.527Z,20.70
2023-05-15T07:05:43.668Z,19.40
2023-05-15T07:08:29.276Z,19.13
2023-05-15T07:11:14.859Z,19.08
2023-05-15T07:14:02.325Z,19.10
2023-05-15T07:16:47.848Z,16.63
2023-05-15T07:19:33.582Z,17.65
2023-05-15T07:22:19.268Z,16.63
2023-05-15T07:25:06.565Z,18.05
2023-05-15T07:27:52.870Z,17.10
2023-05-15T07:30:39.781Z,16.83
2023-05-15T07:33:25.460Z,16.80
2023-05-15T07:36:11.382Z,16.83
2023-05-15T07:38:57.278Z,16.20
2023-05-15T07:41:42.866Z,16.58
2023-05-15T07:44:28.896Z,19.23
2023-05-15T07:47:17.272Z,19.27
2023-05-15T07:50:03.350Z,20.80
2023-05-15T07:52:49.051Z,18.40
2023-05-15T07:55:34.689Z,19.70
2023-05-15T07:58:20.640Z,19.27
2023-05-15T08:01:06.782Z,19.10
2023-05-15T08:03:53.946Z,19.83
2023-05-15T08:06:40.035Z,18.42
2023-05-15T08:09:25.604Z,17.60
2023-05-15T08:12:21.164Z,18.20
2023-05-15T08:15:08.584Z,17.90
2023-05-15T08:17:53.976Z,19.27
2023-05-15T08:20:40.947Z,18.77
2023-05-15T08:23:26.714Z,18.98
2023-05-15T08:26:12.693Z,19.88
2023-05-15T08:28:58.511Z,20.95
2023-05-15T08:31:44.530Z,20.52
2023-05-15T08:34:30.305Z,20.67
2023-05-15T08:37:17.279Z,21.35
2023-05-15T08:40:05.404Z,20.95
2023-05-15T08:42:55.485Z,20.20
2023-05-15T08:45:41.970Z,20.20
2023-05-15T08:48:30.075Z,19.98
2023-05-15T08:51:16.311Z,20.65
2023-05-15T08:54:03.962Z,20.23
2023-05-15T08:56:49.525Z,20.33
2023-05-15T08:59:35.526Z,18.48
2023-05-15T09:02:21.676Z,17.85
2023-05-15T09:05:09.708Z,17.70
2023-05-15T09:07:56.667Z,22.02
2023-05-15T09:10:44.129Z,18.27
2023-05-15T09:13:30.614Z,19.33
2023-05-15T09:16:16.165Z,18.90
2023-05-15T09:19:02.631Z,19.42
2023-05-15T09:21:49.281Z,18.95
2023-05-15T09:24:38.154Z,17.83
2023-05-15T09:27:26.356Z,18.85
2023-05-15T09:30:13.370Z,18.60
2023-05-15T09:33:01.447Z,18.77
2023-05-15T09:35:47.337Z,18.65
2023-05-15T09:38:33.539Z,17.73
2023-05-15T09:41:25.867Z,17.65
2023-05-15T09:44:27.988Z,16.38
2023-05-15T09:47:16.802Z,15.15
2023-05-15T09:50:05.989Z,16.17
2023-05-15T09:52:52.213Z,17.00
2023-05-15T09:55:37.921Z,16.70
2023-05-15T09:58:23.877Z,17.38
2023-05-15T10:01:15.400Z,17.38
2023-05-15T10:04:03.691Z,15.98
2023-05-15T10:06:49.535Z,17.85
2023-05-15T10:09:34.967Z,19.00
2023-05-15T10:12:20.871Z,19.05
2023-05-15T10:15:08.316Z,17.80
2023-05-15T10:17:55.714Z,17.98
2023-05-15T10:20:42.050Z,18.42
2023-05-15T10:23:29.282Z,18.08
2023-05-15T10:26:23.700Z,16.38
2023-05-15T10:29:11.455Z,16.55
2023-05-15T10:31:59.075Z,17.95
2023-05-15T10:34:46.521Z,17.95
2023-05-15T10:37:32.865Z,16.92
2023-05-15T10:40:19.217Z,18.38
2023-05-15T10:43:06.057Z,18.92
2023-05-15T10:45:52.862Z,20.33
2023-05-15T10:48:39.756Z,20.40
2023-05-15T10:51:28.143Z,21.98
2023-05-15T10:54:14.243Z,22.17
2023-05-15T10:56:59.807Z,23.33
2023-05-15T10:59:45.159Z,22.70
2023-05-15T11:02:31.647Z,21.85
2023-05-15T11:05:17.640Z,22.08
2023-05-15T11:08:27.397Z,22.50
2023-05-15T11:11:46.631Z,21.70
2023-05-15T11:14:34.105Z,22.95
2023-05-15T11:17:19.767Z,21.77
2023-05-15T11:20:06.107Z,20.73
2023-05-15T11:22:59.859Z,21.55
2023-05-15T11:25:53.374Z,20.48
2023-05-15T11:28:43.700Z,21.90
2023-05-15T11:31:31.296Z,20.80
2023-05-15T11:34:30.248Z,21.27
2023-05-15T11:37:19.761Z,20.90
2023-05-15T11:40:07.106Z,20.98
2023-05-15T11:43:03.173Z,21.63
2023-05-15T11:45:52.824Z,22.17
2023-05-15T11:48:41.287Z,21.25
2023-05-15T11:51:27.842Z,20.75
2023-05-15T11:54:14.266Z,21.40
2023-05-15T11:57:00.006Z,21.00
2023-05-15T11:59:47.420Z,21.23
2023-05-15T12:02:33.311Z,20.90
2023-05-15T12:05:19.223Z,20.95
2023-05-15T12:08:10.181Z,21.00
2023-05-15T12:10:59.179Z,20.85
2023-05-15T12:13:45.489Z,21.40
2023-05-15T12:16:32.992Z,20.88
2023-05-15T12:19:18.820Z,21.60
2023-05-15T12:22:05.198Z,22.98
2023-05-15T12:24:51.913Z,23.88
2023-05-15T12:27:39.681Z,23.55
2023-05-15T12:30:26.743Z,23.65
2023-05-15T12:33:14.780Z,23.45
2023-05-15T12:36:01.799Z,22.58
2023-05-15T12:38:48.340Z,22.38
2023-05-15T12:41:34.308Z,21.42
2023-05-15T12:44:20.469Z,19.13
2023-05-15T12:47:06.401Z,17.65
2023-05-15T12:49:57.326Z,18.35
2023-05-15T12:52:53.970Z,16.85
2023-05-15T12:55:40.421Z,14.27
2023-05-15T12:58:26.312Z,14.35
2023-05-15T13:01:13.105Z,13.52
2023-05-15T13:03:59.498Z,13.70
2023-05-15T13:06:47.898Z,13.85
2023-05-15T13:09:36.861Z,14.93
2023-05-15T13:12:23.816Z,13.35
2023-05-15T13:15:23.193Z,11.88
2023-05-15T13:18:11.416Z,12.13
2023-05-15T13:20:57.457Z,11.23
2023-05-15T13:23:44.554Z,13.15
2023-05-15T13:26:30.712Z,15.98
2023-05-15T13:29:16.930Z,18.50
2023-05-15T13:32:02.988Z,17.95
2023-05-15T13:34:49.044Z,18.30
2023-05-15T13:37:35.032Z,19.35
2023-05-15T13:40:22.648Z,17.75
2023-05-15T13:43:08.591Z,17.98
2023-05-15T13:45:54.847Z,17.00
2023-05-15T13:48:40.520Z,10.63
2023-05-15T13:51:26.297Z,10.20
2023-05-15T13:54:11.888Z,10.60
2023-05-15T13:56:59.873Z,9.90
2023-05-15T13:59:46.012Z,9.70
2023-05-15T14:02:31.861Z,9.30
2023-05-15T14:05:18.405Z,9.65
2023-05-15T14:08:05.017Z,9.73
2023-05-15T14:10:50.946Z,10.20
2023-05-15T14:13:38.172Z,10.82
2023-05-15T14:16:24.042Z,10.98
2023-05-15T14:19:10.033Z,10.82
2023-05-15T14:21:56.128Z,11.27
2023-05-15T14:24:42.093Z,10.15
2023-05-15T14:27:28.061Z,9.25
2023-05-15T14:30:15.126Z,9.50
2023-05-15T14:33:01.255Z,10.60
2023-05-15T14:35:47.042Z,10.00
2023-05-15T14:38:33.055Z,10.52
2023-05-15T14:41:18.958Z,11.02
2023-05-15T14:44:04.920Z,10.32
2023-05-15T14:47:06.445Z,9.93
2023-05-15T14:49:52.203Z,9.65
2023-05-15T14:52:38.105Z,10.00
2023-05-15T14:55:24.074Z,9.55
2023-05-15T14:58:11.388Z,8.02
2023-05-15T15:00:57.775Z,7.00
2023-05-15T15:03:44.898Z,7.47
2023-05-15T15:06:31.832Z,8.20
2023-05-15T15:09:20.304Z,7.28
2023-05-15T15:12:07.756Z,7.00
2023-05-15T15:14:53.574Z,7.03
2023-05-15T15:17:39.331Z,8.52
2023-05-15T15:20:28.085Z,8.27
2023-05-15T15:23:14.631Z,7.80
2023-05-15T15:26:00.642Z,6.15
2023-05-15T15:28:46.225Z,5.22
2023-05-15T15:31:32.116Z,5.40
2023-05-15T15:34:17.768Z,5.00
2023-05-15T15:37:05.358Z,4.60
2023-05-15T15:39:51.138Z,3.70
2023-05-15T15:42:36.894Z,4.13
2023-05-15T15:45:23.153Z,5.10
2023-05-15T15:48:08.947Z,4.47
2023-05-15T15:50:55.180Z,4.85
2023-05-15T15:53:42.593Z,4.70
2023-05-15T15:56:28.331Z,4.80
2023-05-15T15:59:14.186Z,4.70
2023-05-15T16:01:59.623Z,4.20
2023-05-15T16:04:45.346Z,3.85
2023-05-15T16:07:30.786Z,3.97
2023-05-15T16:10:17.962Z,3.20
2023-05-15T16:13:03.834Z,3.22
2023-05-15T16:15:52.658Z,3.55
2023-05-15T16:18:38.736Z,2.78
2023-05-15T16:21:24.766Z,2.97
2023-05-15T16:24:10.795Z,2.60
2023-05-15T16:26:58.110Z,2.40
2023-05-15T16:29:44.692Z,2.80
2023-05-15T16:32:30.502Z,2.70
2023-05-15T16:35:16.889Z,2.47
2023-05-15T16:38:03.253Z,2.13
2023-05-15T16:40:49.417Z,2.10
2023-05-15T16:43:38.240Z,2.10
2023-05-15T16:46:24.390Z,3.10
2023-05-15T16:49:10.381Z,2.72
2023-05-15T16:51:56.311Z,2.80
2023-05-15T16:54:42.085Z,3.28
2023-05-15T16:57:28.149Z,4.13
2023-05-15T17:00:16.700Z,5.07
2023-05-15T17:03:03.748Z,5.70
2023-05-15T17:05:50.043Z,5.22
2023-05-15T17:08:36.596Z,5.50
2023-05-15T17:11:23.035Z,5.20
2023-05-15T17:14:18.591Z,4.80
2023-05-15T17:17:08.887Z,4.63
2023-05-15T17:19:55.507Z,4.55
2023-05-15T17:22:41.840Z,4.80
2023-05-15T17:25:28.156Z,4.90
2023-05-15T17:28:14.381Z,4.82
2023-05-15T17:31:00.528Z,4.63
2023-05-15T17:33:47.941Z,5.05
2023-05-15T17:36:33.828Z,4.95
2023-05-15T17:39:19.618Z,6.00
2023-05-15T17:42:05.812Z,5.75
2023-05-15T17:44:51.526Z,4.30
2023-05-15T17:47:37.919Z,3.80
2023-05-15T17:50:24.822Z,4.00
2023-05-15T17:53:11.029Z,4.03
2023-05-15T17:55:56.796Z,4.05
2023-05-15T17:58:42.837Z,3.70
2023-05-15T18:01:29.095Z,4.00
2023-05-15T18:04:15.435Z,3.75
2023-05-15T18:07:02.772Z,3.25
2023-05-15T18:09:50.747Z,2.60
2023-05-15T18:12:37.036Z,2.78
2023-05-15T18:15:23.007Z,2.33
2023-05-15T18:18:09.024Z,2.03
2023-05-15T18:20:54.781Z,1.60
2023-05-15T18:23:41.808Z,2.13
2023-05-15T18:26:29.530Z,1.88
2023-05-15T18:29:15.603Z,2.03
2023-05-15T18:32:01.377Z,1.88
2023-05-15T18:34:47.611Z,1.88
2023-05-15T18:37:33.584Z,2.10
2023-05-15T18:40:23.583Z,2.55
2023-05-15T18:43:09.244Z,2.45
2023-05-15T18:45:55.573Z,3.47
2023-05-15T18:48:41.355Z,2.13
2023-05-15T18:51:27.305Z,2.75
2023-05-15T18:54:13.439Z,2.60
2023-05-15T18:57:00.527Z,2.47
2023-05-15T18:59:48.098Z,2.70
2023-05-15T19:02:33.850Z,2.47
2023-05-15T19:05:20.179Z,2.53
2023-05-15T19:08:07.307Z,2.22
2023-05-15T19:10:53.001Z,2.42
2023-05-15T19:13:40.373Z,2.20
2023-05-15T19:16:28.552Z,2.22
2023-05-15T19:19:15.424Z,2.10
2023-05-15T19:22:07.428Z,2.08
2023-05-15T19:24:56.691Z,2.00
2023-05-15T19:27:42.642Z,2.13
2023-05-15T19:30:30.873Z,2.00
2023-05-15T19:33:16.755Z,1.70
2023-05-15T19:36:02.375Z,1.80
2023-05-15T19:38:50.432Z,2.10
2023-05-15T19:41:36.794Z,1.80
2023-05-15T19:44:23.207Z,1.77
2023-05-15T19:47:10.296Z,1.67
2023-05-15T19:49:55.922Z,1.50
2023-05-15T19:52:43.461Z,2.03
2023-05-15T19:55:31.356Z,3.00
2023-05-15T19:58:20.191Z,2.00
2023-05-15T20:01:10.787Z,1.60
2023-05-15T20:03:58.415Z,1.42
2023-05-15T20:06:44.654Z,1.48
2023-05-15T20:09:30.791Z,1.05
2023-05-15T20:12:21.770Z,1.10
2023-05-15T20:15:12.272Z,0.60
2023-05-15T20:18:04.854Z,0.63
2023-05-15T20:20:57.729Z,0.75
2023-05-15T20:23:45.663Z,0.65
2023-05-15T20:26:36.084Z,0.68
2023-05-15T20:29:23.013Z,0.60
2023-05-15T20:32:13.316Z,0.40
2023-05-15T20:35:02.236Z,0.60
2023-05-15T20:37:51.234Z,0.80
2023-05-15T20:40:37.201Z,0.90
2023-05-15T20:43:23.473Z,0.90
2023-05-15T20:46:09.352Z,1.02
2023-05-15T20:48:59.081Z,1.08
2023-05-15T20:51:46.095Z,1.00
2023-05-15T20:54:33.547Z,0.80
2023-05-15T20:57:19.107Z,1.17
2023-05-15T21:00:06.781Z,1.15
2023-05-15T21:02:52.772Z,1.38
2023-05-15T21:05:38.278Z,1.20
2023-05-15T21:08:24.007Z,1.40
2023-05-15T21:11:11.194Z,1.27
2023-05-15T21:13:57.417Z,1.20
2023-05-15T21:16:43.039Z,1.10
2023-05-15T21:19:28.988Z,1.50
2023-05-15T21:22:14.741Z,1.30
2023-05-15T21:25:00.526Z,1.45
2023-05-15T21:27:47.710Z,1.30
2023-05-15T21:30:33.516Z,1.48
2023-05-15T21:33:19.324Z,1.35
2023-05-15T21:36:05.982Z,1.55
2023-05-15T21:39:03.679Z,1.40
2023-05-15T21:41:53.689Z,1.20
2023-05-15T21:45:07.746Z,2.22
2023-05-15T21:47:53.574Z,1.73
2023-05-15T21:50:39.686Z,1.98
2023-05-15T21:53:27.366Z,2.38
2023-05-15T21:56:13.017Z,2.08
2023-05-15T21:58:58.736Z,2.35
2023-05-15T22:01:46.409Z,2.15
2023-05-15T22:04:32.315Z,2.00
2023-05-15T22:07:18.259Z,2.55
2023-05-15T22:10:05.275Z,2.30
2023-05-15T22:12:51.688Z,2.15
2023-05-15T22:15:37.401Z,2.40
2023-05-15T22:18:24.830Z,2.17
2023-05-15T22:21:10.643Z,2.00
2023-05-15T22:23:56.387Z,2.35
2023-05-15T22:26:42.241Z,2.97
2023-05-15T22:29:27.892Z,1.80
2023-05-15T22:32:13.847Z,2.20
2023-05-15T22:35:01.025Z,2.22
2023-05-15T22:37:46.854Z,2.17
2023-05-15T22:40:34.716Z,2.10
2023-05-15T22:43:21.472Z,2.25
2023-05-15T22:46:07.232Z,1.63
2023-05-15T22:48:53.053Z,2.03
2023-05-15T22:51:41.656Z,2.50
2023-05-15T22:54:27.542Z,2.20
2023-05-15T22:57:13.191Z,2.03
2023-05-15T22:59:59.666Z,2.10
2023-05-15T23:02:48.248Z,2.00
2023-05-15T23:05:34.281Z,2.25
2023-05-15T23:08:21.484Z,2.25
2023-05-15T23:11:07.425Z,2.80
2023-05-15T23:13:53.000Z,2.47
2023-05-15T23:16:38.721Z,2.20
2023-05-15T23:19:24.670Z,2.42
2023-05-15T23:22:12.346Z,2.55
2023-05-15T23:24:59.070Z,1.83
2023-05-15T23:27:45.036Z,3.03
2023-05-15T23:30:30.982Z,2.38
2023-05-15T23:33:17.217Z,2.63
2023-05-15T23:36:02.968Z,2.55
2023-05-15T23:38:48.935Z,2.38
2023-05-15T23:41:36.455Z,2.67
2023-05-15T23:44:22.395Z,2.38
2023-05-15T23:47:08.652Z,2.30
2023-05-15T23:49:54.585Z,2.28
2023-05-15T23:52:40.279Z,2.25
2023-05-15T23:55:25.740Z,2.20
2023-05-15T23:58:13.166Z,2.25
